Time;durP1;ratioP1;P1;durP2;ratioP2;P2;SDS_P1;SDS_P2;PMS_P1;PMS_P2;Temp;Humidity;BMP_temperature;BMP_pressure;BME280_temperature;BME280_humidity;BME280_pressure;Samples;Min_cycle;Max_cycle;Signal;HPM_P1;HPM_P2
2023/06/02 00:01:49;;;;;;;5.65;1.90;;;;;;;12.34;100.00;101807.63;6182161;23;19993;-82
2023/06/02 00:04:17;;;;;;;5.80;2.30;;;;;;;12.38;100.00;101811.94;6182318;23;20009;-82
2023/06/02 00:06:45;;;;;;;9.05;2.10;;;;;;;12.44;100.00;101805.97;6181438;23;20009;-82
2023/06/02 00:09:11;;;;;;;10.30;2.30;;;;;;;12.32;100.00;101785.78;6178903;23;20069;-83
2023/06/02 00:11:38;;;;;;;7.65;2.30;;;;;;;12.44;100.00;101803.22;6131947;23;20032;-83
2023/06/02 00:14:07;;;;;;;8.40;2.45;;;;;;;12.41;100.00;101811.72;6183241;23;20011;-83
2023/06/02 00:16:43;;;;;;;8.65;2.22;;;;;;;12.41;100.00;101802.59;6151928;23;20013;-82
2023/06/02 00:19:11;;;;;;;5.82;2.22;;;;;;;12.44;100.00;101803.22;6173973;23;20005;-82
2023/06/02 00:21:37;;;;;;;8.43;2.83;;;;;;;12.35;100.00;101801.16;6178469;23;20016;-83
2023/06/02 00:24:03;;;;;;;8.63;2.38;;;;;;;12.23;100.00;101805.69;6152994;23;20349;-83
2023/06/02 00:26:29;;;;;;;14.55;2.75;;;;;;;12.26;100.00;101805.44;6116546;23;20009;-82
2023/06/02 00:28:55;;;;;;;6.28;2.00;;;;;;;12.30;100.00;101801.50;6140150;23;20068;-83
2023/06/02 00:31:21;;;;;;;6.45;2.38;;;;;;;12.38;100.00;101798.22;6093166;23;20031;-82
2023/06/02 00:33:48;;;;;;;7.13;2.28;;;;;;;12.18;100.00;101793.25;6195715;23;20093;-83
2023/06/02 00:36:13;;;;;;;10.13;2.42;;;;;;;12.13;100.00;101793.56;6146094;23;20016;-83
2023/06/02 00:38:39;;;;;;;6.97;2.35;;;;;;;11.94;100.00;101792.13;6169745;23;20016;-83
2023/06/02 00:41:05;;;;;;;8.77;2.40;;;;;;;11.85;100.00;101784.47;6144290;23;20013;-83
2023/06/02 00:43:31;;;;;;;7.45;2.72;;;;;;;11.89;100.00;101788.78;6119187;23;20013;-83
2023/06/02 00:45:56;;;;;;;7.00;2.60;;;;;;;11.86;100.00;101805.47;6166437;23;20017;-83
2023/06/02 00:48:22;;;;;;;10.98;2.55;;;;;;;11.94;100.00;101800.34;6165877;23;20021;-83
2023/06/02 00:50:48;;;;;;;9.05;2.63;;;;;;;11.89;100.00;101791.53;6143665;23;20013;-82
2023/06/02 00:53:14;;;;;;;11.25;2.67;;;;;;;11.81;100.00;101785.69;6168580;23;20102;-83
2023/06/02 00:55:41;;;;;;;9.10;2.60;;;;;;;11.85;100.00;101786.34;6144491;23;20100;-83
2023/06/02 00:58:07;;;;;;;8.27;2.20;;;;;;;11.89;100.00;101787.91;6150707;23;20065;-83
2023/06/02 01:00:36;;;;;;;11.32;2.50;;;;;;;11.82;100.00;101787.44;6202915;23;20009;-83
2023/06/02 01:03:03;;;;;;;8.13;2.40;;;;;;;11.81;100.00;101804.03;6179824;23;20009;-83
2023/06/02 01:05:29;;;;;;;7.85;2.60;;;;;;;11.69;100.00;101803.91;6204765;23;20016;-83
2023/06/02 01:08:00;;;;;;;7.53;2.50;;;;;;;11.60;100.00;101788.06;6204833;23;20021;-83
2023/06/02 01:10:27;;;;;;;8.18;2.17;;;;;;;11.57;100.00;101800.09;6153644;23;20028;-83
2023/06/02 01:12:54;;;;;;;7.15;2.30;;;;;;;11.57;100.00;101813.81;6147718;23;20013;-83
2023/06/02 01:15:20;;;;;;;6.63;2.13;;;;;;;11.59;100.00;101814.63;6170026;23;20349;-83
2023/06/02 01:17:46;;;;;;;5.50;1.92;;;;;;;11.57;100.00;101813.81;6200296;23;20009;-83
2023/06/02 01:20:21;;;;;;;10.65;2.05;;;;;;;11.49;100.00;101802.50;6141809;23;20027;-83
2023/06/02 01:23:29;;;;;;;4.70;2.03;;;;;;;11.57;100.00;101807.47;6165810;23;20440;-83
2023/06/02 01:25:55;;;;;;;8.68;2.30;;;;;;;11.59;100.00;101811.88;6041132;23;20435;-83
2023/06/02 01:28:21;;;;;;;11.27;2.08;;;;;;;11.45;100.00;101789.13;6047708;23;20015;-83
2023/06/02 01:30:54;;;;;;;11.07;2.33;;;;;;;11.49;100.00;101810.72;6109037;23;20000;-82
2023/06/02 01:33:26;;;;;;;14.25;2.30;;;;;;;11.44;100.00;101790.09;6176936;23;20012;-82
2023/06/02 01:35:59;;;;;;;12.48;2.28;;;;;;;11.57;100.00;101810.22;6169936;23;20084;-82
2023/06/02 01:38:28;;;;;;;14.63;2.60;;;;;;;11.50;100.00;101800.66;6169609;23;20437;-82
2023/06/02 01:41:00;;;;;;;5.90;1.90;;;;;;;11.44;100.00;101787.34;6174484;23;20013;-82
2023/06/02 01:43:27;;;;;;;15.48;2.22;;;;;;;11.51;100.00;101795.06;6171536;23;20341;-81
2023/06/02 01:45:54;;;;;;;9.88;2.13;;;;;;;11.56;100.00;101794.75;6166530;23;20063;-82
2023/06/02 01:48:19;;;;;;;4.63;1.73;;;;;;;11.46;100.00;101797.25;6147996;23;20021;-82
2023/06/02 01:50:45;;;;;;;8.68;1.70;;;;;;;11.39;100.00;101796.75;6173681;23;20032;-82
2023/06/02 01:53:10;;;;;;;13.95;2.40;;;;;;;11.47;100.00;101800.84;6146854;23;20016;-82
2023/06/02 01:55:36;;;;;;;11.32;2.03;;;;;;;11.45;100.00;101798.22;6172822;23;20067;-82
2023/06/02 01:58:03;;;;;;;6.03;1.80;;;;;;;11.41;100.00;101782.94;6150608;23;20043;-81
2023/06/02 02:00:28;;;;;;;10.18;1.98;;;;;;;11.49;100.00;101797.00;6173630;23;20009;-84
2023/06/02 02:02:54;;;;;;;7.30;1.52;;;;;;;11.42;100.00;101783.84;6170467;23;20009;-83
2023/06/02 02:05:21;;;;;;;9.27;1.98;;;;;;;11.39;100.00;101787.66;6144779;23;20340;-84
2023/06/02 02:07:47;;;;;;;9.65;1.92;;;;;;;11.38;100.00;101794.13;6142846;23;20064;-84
2023/06/02 02:10:14;;;;;;;6.78;1.65;;;;;;;11.40;100.00;101797.66;6166837;23;20061;-83
2023/06/02 02:12:40;;;;;;;16.20;2.10;;;;;;;11.37;100.00;101792.38;6117123;23;20005;-84
2023/06/02 02:15:07;;;;;;;12.82;2.03;;;;;;;11.37;100.00;101789.63;6142515;23;20011;-82
2023/06/02 02:17:44;;;;;;;8.88;1.70;;;;;;;11.34;100.00;101787.97;6165100;23;20383;-82
2023/06/02 02:20:15;;;;;;;13.13;2.00;;;;;;;11.49;100.00;101788.78;6141632;23;20043;-84
2023/06/02 02:22:40;;;;;;;9.02;1.75;;;;;;;11.55;100.00;101802.06;6191115;23;20009;-82
2023/06/02 02:25:06;;;;;;;13.57;1.70;;;;;;;11.54;100.00;101797.59;6140968;23;20437;-83
2023/06/02 02:27:31;;;;;;;8.68;1.92;;;;;;;11.52;100.00;101791.31;6113964;23;20048;-82
2023/06/02 02:29:57;;;;;;;10.52;2.28;;;;;;;11.55;100.00;101795.72;6113781;23;20046;-83
2023/06/02 02:32:22;;;;;;;9.18;1.60;;;;;;;11.59;100.00;101802.75;6188441;23;20013;-82
2023/06/02 02:34:48;;;;;;;8.20;2.05;;;;;;;11.50;100.00;101800.66;6140036;23;20009;-84
2023/06/02 02:37:13;;;;;;;12.63;2.35;;;;;;;11.43;100.00;101785.56;6163731;23;20005;-83
2023/06/02 02:39:39;;;;;;;14.38;2.50;;;;;;;11.59;100.00;101798.16;6137948;23;20013;-83
2023/06/02 02:42:05;;;;;;;10.93;2.53;;;;;;;11.58;100.00;101810.09;6138262;23;20013;-83
2023/06/02 02:44:31;;;;;;;9.18;1.90;;;;;;;11.51;100.00;101792.31;6139572;23;20021;-83
2023/06/02 02:46:58;;;;;;;13.43;2.03;;;;;;;11.53;100.00;101798.56;6135422;23;20052;-82
2023/06/02 02:49:24;;;;;;;12.63;1.90;;;;;;;11.52;100.00;101796.78;6085977;23;20017;-82
2023/06/02 02:51:49;;;;;;;8.10;2.35;;;;;;;11.47;100.00;101803.59;6141289;23;20484;-81
2023/06/02 02:54:15;;;;;;;6.57;2.08;;;;;;;11.47;100.00;101800.84;6138678;23;20026;-82
2023/06/02 02:56:40;;;;;;;13.40;2.47;;;;;;;11.51;100.00;101802.38;6167438;23;20488;-82
2023/06/02 02:59:06;;;;;;;9.50;2.70;;;;;;;11.39;100.00;101793.13;6116068;23;20082;-82
2023/06/02 03:01:32;;;;;;;15.43;1.67;;;;;;;11.45;100.00;101794.59;6091250;23;20010;-82
2023/06/02 03:03:58;;;;;;;14.80;2.40;;;;;;;11.55;100.00;101802.06;6114607;23;20016;-82
2023/06/02 03:06:29;;;;;;;11.57;2.55;;;;;;;11.55;100.00;101804.81;6114176;23;20010;-82
2023/06/02 03:08:54;;;;;;;9.55;2.15;;;;;;;11.52;100.00;101799.53;6167774;23;20005;-83
2023/06/02 03:11:21;;;;;;;16.48;3.03;;;;;;;11.51;100.00;101800.53;6091523;23;20028;-83
2023/06/02 03:13:47;;;;;;;9.68;2.45;;;;;;;11.55;100.00;101803.94;6090235;23;20041;-83
2023/06/02 03:16:12;;;;;;;16.60;3.20;;;;;;;11.57;100.00;101805.59;6136203;23;20708;-83
2023/06/02 03:18:38;;;;;;;4.57;1.88;;;;;;;11.51;100.00;101807.88;6139237;23;20030;-83
2023/06/02 03:21:05;;;;;;;9.15;2.53;;;;;;;11.45;100.00;101811.91;6164119;23;20009;-83
2023/06/02 03:23:30;;;;;;;11.82;2.67;;;;;;;11.38;100.00;101800.50;6111781;23;20021;-82
2023/06/02 03:25:56;;;;;;;7.22;1.85;;;;;;;11.37;100.00;101792.38;6111711;23;20115;-83
2023/06/02 03:28:21;;;;;;;10.90;2.17;;;;;;;11.43;100.00;101816.63;6119162;23;20021;-82
2023/06/02 03:30:47;;;;;;;18.45;2.15;;;;;;;11.38;100.00;101811.47;6146170;23;20349;-82
2023/06/02 03:33:12;;;;;;;12.68;2.25;;;;;;;11.21;100.00;101795.25;6112088;23;20017;-84
2023/06/02 03:35:38;;;;;;;11.43;2.40;;;;;;;11.17;100.00;101788.22;6135869;23;20013;-83
2023/06/02 03:38:05;;;;;;;5.50;1.73;;;;;;;11.27;100.00;101811.28;6110781;23;20013;-82
2023/06/02 03:40:31;;;;;;;15.32;2.90;;;;;;;11.21;100.00;101815.34;6134750;23;20010;-82
2023/06/02 03:42:57;;;;;;;3.85;1.80;;;;;;;11.22;100.00;101813.47;6110449;23;20032;-82
2023/06/02 03:45:22;;;;;;;10.60;1.98;;;;;;;11.16;100.00;101809.25;6135250;23;20009;-82
2023/06/02 03:47:47;;;;;;;10.02;2.08;;;;;;;11.19;100.00;101819.16;6126223;23;20503;-83
2023/06/02 03:50:13;;;;;;;9.50;2.20;;;;;;;11.19;100.00;101817.28;6139448;23;20009;-82
2023/06/02 03:52:38;;;;;;;15.13;2.50;;;;;;;11.04;100.00;101791.78;6162806;23;20024;-83
2023/06/02 03:55:05;;;;;;;7.50;2.15;;;;;;;11.15;100.00;101818.47;6113842;23;20799;-83
2023/06/02 03:57:30;;;;;;;16.83;2.25;;;;;;;11.28;100.00;101820.38;6188015;23;20068;-83
2023/06/02 03:59:56;;;;;;;12.45;2.17;;;;;;;11.09;100.00;101823.50;6089114;23;20009;-83
2023/06/02 04:02:21;;;;;;;10.32;1.85;;;;;;;11.17;100.00;101823.88;6112926;23;20020;-83
2023/06/02 04:04:47;;;;;;;8.35;1.65;;;;;;;11.06;100.00;101812.72;6167166;23;20013;-82
2023/06/02 04:07:12;;;;;;;13.05;2.90;;;;;;;11.18;100.00;101823.75;6143990;23;20088;-82
2023/06/02 04:09:38;;;;;;;11.80;2.10;;;;;;;11.29;100.00;101828.50;6142163;23;20005;-82
2023/06/02 04:12:03;;;;;;;12.10;2.13;;;;;;;11.32;100.00;101828.31;6117270;23;20013;-82
2023/06/02 04:14:30;;;;;;;8.77;1.90;;;;;;;11.19;100.00;101838.34;6192956;23;20009;-82
2023/06/02 04:16:56;;;;;;;12.85;2.15;;;;;;;11.09;100.00;101813.41;6141213;23;20020;-82
2023/06/02 04:19:22;;;;;;;6.38;1.80;;;;;;;11.29;100.00;101834.00;6144345;23;20001;-86
2023/06/02 04:21:47;;;;;;;11.95;2.47;;;;;;;11.16;100.00;101828.44;6176520;23;20017;-84
2023/06/02 04:24:13;;;;;;;11.23;2.78;;;;;;;11.10;100.00;101812.44;6126488;23;20021;-86
2023/06/02 04:26:38;;;;;;;10.55;2.35;;;;;;;11.12;100.00;101826.91;6121697;23;20038;-85
2023/06/02 04:29:03;;;;;;;10.13;2.03;;;;;;;11.21;100.00;101820.81;6147678;23;20034;-84
2023/06/02 04:31:47;;;;;;;8.27;2.60;;;;;;;11.04;100.00;101816.44;6170595;23;20381;-82
2023/06/02 04:34:13;;;;;;;15.50;2.40;;;;;;;11.14;100.00;101829.53;6163222;23;20730;-81
2023/06/02 04:36:45;;;;;;;8.15;2.05;;;;;;;10.99;100.00;101821.34;6164688;23;20433;-80
2023/06/02 04:39:10;;;;;;;11.55;2.95;;;;;;;11.02;100.00;101831.25;6161911;23;20009;-81
2023/06/02 04:41:36;;;;;;;11.82;2.35;;;;;;;11.05;100.00;101822.78;6161325;23;20546;-80
2023/06/02 04:44:03;;;;;;;6.20;2.28;;;;;;;11.08;100.00;101833.56;6162551;23;20009;-80
2023/06/02 04:46:28;;;;;;;8.43;2.35;;;;;;;11.20;100.00;101829.16;6135734;23;20067;-79
2023/06/02 04:48:54;;;;;;;10.75;2.15;;;;;;;11.22;100.00;101839.00;6140703;23;20013;-79
2023/06/02 04:51:25;;;;;;;10.90;2.47;;;;;;;11.04;100.00;101821.03;6115936;23;20018;-81
2023/06/02 05:19:43;;;;;;;11.32;2.15;;;;;;;11.04;100.00;101829.25;6150803;23;20013;-82
2023/06/02 05:35:05;;;;;;;8.25;2.88;;;;;;;11.15;100.00;101848.63;6164856;23;20376;-83
2023/06/02 05:37:30;;;;;;;8.63;2.33;;;;;;;11.22;100.00;101849.09;6134799;23;20021;-80
2023/06/02 05:39:56;;;;;;;11.95;2.50;;;;;;;11.36;100.00;101837.22;6122963;23;20013;-80
2023/06/02 05:42:21;;;;;;;6.43;1.83;;;;;;;11.38;100.00;101844.38;6145888;23;20060;-82
2023/06/02 05:44:47;;;;;;;12.13;2.28;;;;;;;11.33;100.00;101848.38;6159499;23;20012;-81
2023/06/02 05:47:12;;;;;;;13.25;2.42;;;;;;;11.48;100.00;101852.84;6159220;23;20119;-81
2023/06/02 05:49:38;;;;;;;11.60;2.80;;;;;;;11.22;100.00;101839.00;6131484;23;20025;-81
2023/06/02 05:52:03;;;;;;;15.23;2.17;;;;;;;11.42;100.00;101850.50;6108052;23;20009;-81
2023/06/02 05:54:29;;;;;;;12.27;1.83;;;;;;;11.38;100.00;101846.25;6179615;23;20043;-81
2023/06/02 05:59:23;;;;;;;9.18;2.38;;;;;;;11.26;100.00;101858.00;6112377;23;20018;-81
2023/06/02 06:01:48;;;;;;;6.95;1.77;;;;;;;11.23;100.00;101848.09;6069063;23;20057;-83
2023/06/02 06:04:13;;;;;;;7.93;1.70;;;;;;;11.43;100.00;101867.84;6092909;23;20054;-82
2023/06/02 06:06:39;;;;;;;10.07;1.90;;;;;;;11.36;100.00;101857.31;6057782;23;20059;-82
2023/06/02 06:09:07;;;;;;;6.13;1.50;;;;;;;11.10;100.00;101841.69;6090281;23;20006;-81
2023/06/02 06:11:33;;;;;;;9.40;1.75;;;;;;;11.37;100.00;101856.31;6069542;23;20076;-81
2023/06/02 06:14:00;;;;;;;7.28;1.45;;;;;;;11.38;100.00;101858.06;6032045;23;20014;-86
2023/06/02 06:16:27;;;;;;;10.80;1.90;;;;;;;11.53;100.00;101863.53;6061489;23;20089;-85
2023/06/02 06:18:52;;;;;;;11.98;2.10;;;;;;;11.39;100.00;101856.19;6075108;23;20495;-82
2023/06/02 06:21:18;;;;;;;9.80;1.85;;;;;;;11.51;100.00;101863.63;6048969;23;20034;-80
2023/06/02 06:23:43;;;;;;;9.45;1.63;;;;;;;11.45;100.00;101858.53;6082097;23;20044;-83
2023/06/02 06:26:09;;;;;;;15.55;1.80;;;;;;;11.44;100.00;101856.78;6053392;23;20042;-79
2023/06/02 06:28:34;;;;;;;9.57;1.60;;;;;;;11.27;100.00;101863.38;6107289;23;20023;-78
2023/06/02 06:31:00;;;;;;;13.55;2.30;;;;;;;11.41;100.00;101865.19;6072000;23;20011;-79
2023/06/02 06:33:25;;;;;;;11.25;1.90;;;;;;;11.63;100.00;101864.66;6074363;23;20067;-80
2023/06/02 06:35:51;;;;;;;8.38;2.00;;;;;;;11.44;100.00;101858.66;6070530;23;20316;-80
2023/06/02 06:38:16;;;;;;;8.40;1.40;;;;;;;11.47;100.00;101866.66;6001347;23;20065;-79
2023/06/02 06:40:43;;;;;;;11.20;1.85;;;;;;;11.55;100.00;101870.66;6121037;23;20018;-80
2023/06/02 06:43:08;;;;;;;9.95;2.05;;;;;;;11.50;100.00;101864.59;6136330;23;20014;-79
2023/06/02 06:45:34;;;;;;;12.75;1.52;;;;;;;11.50;99.18;101861.84;6126703;23;20014;-79
2023/06/02 06:47:59;;;;;;;5.85;1.40;;;;;;;11.57;99.86;101856.84;6081565;23;20009;-78
2023/06/02 06:50:25;;;;;;;11.57;2.15;;;;;;;11.64;98.26;101860.03;6082404;23;20095;-80
2023/06/02 06:52:50;;;;;;;11.90;2.40;;;;;;;11.64;98.49;101871.00;6060935;23;20017;-80
2023/06/02 06:55:16;;;;;;;7.30;1.60;;;;;;;11.69;98.67;101853.28;6130737;23;20017;-80
2023/06/02 06:57:45;;;;;;;11.57;1.55;;;;;;;11.85;99.59;101872.28;6081449;23;20018;-80
2023/06/02 07:00:11;;;;;;;10.75;1.58;;;;;;;11.91;100.00;101851.81;6135262;23;20006;-80
2023/06/02 07:02:37;;;;;;;7.13;1.52;;;;;;;11.93;98.20;101850.72;6116562;23;20017;-82
2023/06/02 07:05:03;;;;;;;12.80;1.90;;;;;;;11.89;99.52;101860.13;6085387;23;20473;-81
2023/06/02 07:07:29;;;;;;;11.10;2.22;;;;;;;11.95;99.45;101868.00;6134685;23;20017;-82
2023/06/02 07:18:22;;;;;;;6.20;1.40;;;;;;;11.95;96.95;101875.31;6123553;23;20025;-81
2023/06/02 07:20:50;;;;;;;10.85;1.70;;;;;;;12.00;94.82;101870.41;6162082;23;20008;-81
2023/06/02 07:23:17;;;;;;;6.93;1.42;;;;;;;12.09;95.23;101871.66;6097211;23;20005;-81
2023/06/02 07:25:42;;;;;;;10.73;1.73;;;;;;;12.02;95.24;101873.03;6179812;23;20020;-81
2023/06/02 07:28:08;;;;;;;5.68;1.40;;;;;;;11.95;93.99;101869.84;6131147;23;19993;-82
2023/06/02 07:30:34;;;;;;;9.80;1.63;;;;;;;11.96;94.25;101879.84;6115100;23;20100;-81
2023/06/02 07:33:00;;;;;;;4.38;1.48;;;;;;;11.99;94.65;101879.63;6161329;23;20021;-80
2023/06/02 07:35:25;;;;;;;15.18;2.05;;;;;;;12.16;94.08;101880.34;6105866;23;20741;-81
2023/06/02 07:37:53;;;;;;;12.50;2.33;;;;;;;12.14;93.05;101885.94;6058410;23;20069;-80
2023/06/02 07:40:19;;;;;;;9.93;2.35;;;;;;;12.12;94.38;101886.03;6129807;23;20333;-81
2023/06/02 07:42:44;;;;;;;9.25;1.60;;;;;;;12.34;93.15;101881.78;6160156;23;20009;-81
2023/06/02 07:45:10;;;;;;;5.75;1.25;;;;;;;12.39;91.87;101860.38;6135968;23;20013;-81
2023/06/02 07:47:35;;;;;;;10.50;1.30;;;;;;;12.39;92.33;101875.97;6109625;23;20048;-81
2023/06/02 07:50:04;;;;;;;7.10;1.77;;;;;;;12.39;91.71;101876.84;6110327;23;20009;-81
2023/06/02 07:52:30;;;;;;;13.70;1.60;;;;;;;12.48;91.96;101880.84;6159991;23;20015;-82
2023/06/02 07:54:55;;;;;;;9.02;1.77;;;;;;;12.48;92.70;101867.09;6136448;23;20497;-81
2023/06/02 07:57:21;;;;;;;9.10;2.42;;;;;;;12.45;91.36;101857.19;6112191;23;20019;-80
2023/06/02 07:59:46;;;;;;;12.90;1.80;;;;;;;12.64;90.42;101875.09;6136063;23;20013;-81
2023/06/02 08:02:12;;;;;;;14.75;1.85;;;;;;;12.42;90.49;101868.41;6161028;23;20033;-81
2023/06/02 08:04:37;;;;;;;9.82;1.20;;;;;;;12.72;90.53;101869.94;6087472;23;20036;-80
2023/06/02 08:07:04;;;;;;;7.47;1.70;;;;;;;12.75;89.53;101863.34;6160620;23;20020;-81
2023/06/02 08:09:29;;;;;;;10.63;1.65;;;;;;;12.71;91.26;101868.19;6136276;23;20013;-80
2023/06/02 08:11:55;;;;;;;13.77;2.40;;;;;;;12.71;88.70;101870.03;6135972;23;20024;-81
2023/06/02 08:14:20;;;;;;;10.00;2.20;;;;;;;12.94;87.49;101863.78;6136458;23;20071;-81
2023/06/02 08:16:46;;;;;;;10.75;2.33;;;;;;;12.95;89.02;101871.00;6111400;23;20025;-80
2023/06/02 08:19:11;;;;;;;9.55;1.90;;;;;;;13.22;89.92;101875.50;6135251;23;20087;-81
2023/06/02 08:21:39;;;;;;;14.75;2.05;;;;;;;13.29;87.33;101871.28;6136399;23;20051;-81
2023/06/02 08:24:04;;;;;;;13.10;2.00;;;;;;;13.16;84.31;101857.56;6161463;23;20009;-80
2023/06/02 08:26:30;;;;;;;14.38;1.90;;;;;;;13.34;86.47;101857.22;6161575;23;20017;-81
2023/06/02 08:28:57;;;;;;;8.43;1.27;;;;;;;13.70;83.62;101867.31;6189662;23;20468;-81
2023/06/02 08:31:22;;;;;;;7.88;1.77;;;;;;;14.68;80.02;101872.56;6113029;23;20009;-82
2023/06/02 08:33:52;;;;;;;12.40;1.98;;;;;;;14.20;81.51;101874.53;6160877;23;20337;-81
2023/06/02 08:36:20;;;;;;;11.20;2.08;;;;;;;14.20;78.95;101872.69;6186778;23;20020;-80
2023/06/02 08:38:47;;;;;;;12.45;1.95;;;;;;;14.07;79.02;101870.00;6135293;23;20009;-79
2023/06/02 08:41:13;;;;;;;11.65;2.03;;;;;;;14.25;78.15;101873.19;6159125;23;20024;-80
2023/06/02 08:43:40;;;;;;;5.22;2.00;;;;;;;13.98;83.25;101870.72;6159444;23;20345;-80
2023/06/02 08:46:11;;;;;;;7.32;1.70;;;;;;;14.98;78.35;101870.22;6135784;23;20009;-80
2023/06/02 08:48:41;;;;;;;9.13;1.60;;;;;;;14.50;78.55;101866.59;6162125;23;20009;-80
2023/06/02 08:51:10;;;;;;;14.55;2.17;;;;;;;14.25;78.84;101859.41;6135459;23;20005;-81
2023/06/02 08:53:36;;;;;;;10.88;1.65;;;;;;;14.53;78.77;101858.09;6159707;23;20012;-81
2023/06/02 08:56:03;;;;;;;9.07;1.75;;;;;;;14.39;78.64;101871.22;6162027;23;20013;-81
2023/06/02 08:58:32;;;;;;;12.70;1.55;;;;;;;14.23;78.68;101861.44;6187220;23;20342;-80
2023/06/02 09:00:58;;;;;;;15.45;2.20;;;;;;;14.03;79.78;101862.97;6190486;23;20040;-80
2023/06/02 09:03:27;;;;;;;15.32;2.20;;;;;;;14.39;80.37;101857.44;6137699;23;20017;-81
2023/06/02 09:05:53;;;;;;;12.43;1.50;;;;;;;14.55;79.11;101857.13;6161491;23;20016;-83
2023/06/02 09:08:18;;;;;;;18.05;2.00;;;;;;;15.11;76.40;101842.50;6163614;23;20009;-81
2023/06/02 09:10:45;;;;;;;8.02;1.65;;;;;;;16.24;73.11;101864.28;6139725;23;20091;-82
2023/06/02 09:13:33;;;;;;;8.65;1.70;;;;;;;17.33;65.31;101861.97;6137928;23;20053;-80
2023/06/02 09:16:03;;;;;;;8.05;1.60;;;;;;;16.90;65.68;101864.88;6135664;23;20456;-81
2023/06/02 09:18:29;;;;;;;9.50;2.28;;;;;;;17.68;63.41;101861.47;6135437;23;20020;-80
2023/06/02 09:20:58;;;;;;;7.30;1.60;;;;;;;17.81;64.54;101866.75;6136066;23;20433;-81
2023/06/02 09:23:48;;;;;;;12.57;2.13;;;;;;;16.45;64.57;101867.06;6160862;23;20025;-80
2023/06/02 09:26:30;;;;;;;8.52;1.52;;;;;;;15.94;67.23;101858.50;6161557;23;20021;-80
2023/06/02 09:29:04;;;;;;;9.48;2.10;;;;;;;15.58;69.98;101868.00;6135317;23;20092;-81
2023/06/02 09:31:47;;;;;;;6.80;1.70;;;;;;;15.62;71.05;101862.06;6161435;23;20013;-80
2023/06/02 09:34:17;;;;;;;9.88;2.10;;;;;;;16.67;67.03;101864.09;6161105;23;20008;-80
2023/06/02 09:36:45;;;;;;;8.30;1.60;;;;;;;16.67;66.64;101855.81;6160859;23;20333;-81
2023/06/02 09:39:10;;;;;;;9.45;2.15;;;;;;;16.66;64.32;101861.47;6160972;23;20453;-81
2023/06/02 09:41:40;;;;;;;9.88;1.73;;;;;;;17.25;64.44;101855.25;6186991;23;20013;-81
2023/06/02 09:44:15;;;;;;;14.43;2.05;;;;;;;18.05;63.96;101860.78;6160197;23;20345;-81
2023/06/02 09:46:43;;;;;;;14.25;1.88;;;;;;;17.82;64.75;101858.28;6160074;23;20009;-81
2023/06/02 09:49:09;;;;;;;11.65;1.65;;;;;;;17.01;65.80;101850.06;6186638;23;20009;-81
2023/06/02 09:51:38;;;;;;;14.85;2.42;;;;;;;17.26;65.52;101861.66;6187262;23;20016;-80
2023/06/02 09:54:06;;;;;;;13.38;1.83;;;;;;;16.89;64.61;101845.66;6089368;23;20079;-81
2023/06/02 09:56:42;;;;;;;6.82;1.60;;;;;;;17.10;65.21;101842.78;6161027;23;20017;-81
2023/06/02 09:59:08;;;;;;;10.90;1.83;;;;;;;15.90;66.87;101845.09;6186910;23;20070;-80
2023/06/02 10:01:35;;;;;;;13.55;2.28;;;;;;;16.66;67.34;101851.31;6161703;23;20095;-81
2023/06/02 10:04:02;;;;;;;9.15;1.73;;;;;;;17.21;66.29;101852.91;6186970;23;20009;-81
2023/06/02 10:06:41;;;;;;;10.15;1.98;;;;;;;17.24;64.46;101847.94;6136734;23;20111;-81
2023/06/02 10:09:29;;;;;;;14.18;2.75;;;;;;;16.94;64.95;101851.63;6187398;23;20005;-81
2023/06/02 10:12:21;;;;;;;8.20;2.28;;;;;;;16.76;66.18;101853.25;6137109;23;20511;-80
2023/06/02 10:15:08;;;;;;;11.13;2.10;;;;;;;18.02;62.50;101851.91;6161639;23;20009;-81
2023/06/02 10:17:57;;;;;;;8.73;1.98;;;;;;;18.89;62.14;101837.91;6137301;23;20024;-80
2023/06/02 10:20:44;;;;;;;12.88;2.75;;;;;;;17.73;62.48;101842.53;6187536;23;20011;-81
2023/06/02 10:23:23;;;;;;;7.93;2.05;;;;;;;18.12;64.24;101848.13;6160654;23;20445;-81
2023/06/02 10:26:17;;;;;;;7.68;2.58;;;;;;;18.27;60.52;101839.34;6150824;23;20005;-81
2023/06/02 10:28:44;;;;;;;14.38;2.10;;;;;;;17.58;63.60;101838.44;6136098;23;20437;-80
2023/06/02 10:31:11;;;;;;;9.57;1.90;;;;;;;17.61;63.87;101838.13;6136546;23;20052;-80
2023/06/02 10:33:47;;;;;;;13.95;2.30;;;;;;;17.04;64.02;101840.63;6161412;23;20063;-80
2023/06/02 10:36:13;;;;;;;9.10;2.17;;;;;;;17.49;65.78;101839.28;6187434;23;20009;-81
2023/06/02 10:38:40;;;;;;;8.82;2.58;;;;;;;17.75;65.25;101831.31;6137146;23;20139;-81
2023/06/02 10:41:06;;;;;;;8.13;2.35;;;;;;;18.11;62.19;101842.72;6189000;23;20009;-81
2023/06/02 10:43:35;;;;;;;7.95;1.98;;;;;;;18.65;62.30;101827.28;6136797;23;20075;-81
2023/06/02 10:46:20;;;;;;;8.65;1.98;;;;;;;18.51;64.25;101836.97;6160480;23;20040;-81
2023/06/02 10:48:47;;;;;;;18.95;2.33;;;;;;;18.35;61.76;101833.94;6160173;23;20076;-81
2023/06/02 10:51:12;;;;;;;7.80;1.88;;;;;;;18.12;63.65;101830.63;6136502;23;20013;-81
2023/06/02 10:54:12;;;;;;;12.23;2.40;;;;;;;18.50;61.17;101823.25;6135479;23;20437;-81
2023/06/02 10:56:39;;;;;;;8.35;2.13;;;;;;;17.81;64.53;101828.81;6135959;23;20344;-81
2023/06/02 10:59:05;;;;;;;10.65;2.55;;;;;;;19.09;61.49;101816.47;6135725;23;20012;-81
2023/06/02 11:01:44;;;;;;;5.82;2.08;;;;;;;19.13;63.31;101830.94;6186625;23;20012;-81
2023/06/02 11:04:33;;;;;;;16.40;2.22;;;;;;;18.32;63.50;101831.47;6159602;23;20009;-81
2023/06/02 11:07:23;;;;;;;7.70;2.33;;;;;;;18.30;63.80;101825.16;6186980;23;20005;-81
2023/06/02 11:09:52;;;;;;;7.82;2.15;;;;;;;18.83;63.47;101827.41;6186403;23;20100;-80
2023/06/02 11:12:17;;;;;;;12.40;2.90;;;;;;;19.29;62.92;101822.78;6161200;23;20325;-80
2023/06/02 11:15:02;;;;;;;11.32;2.45;;;;;;;18.36;63.05;101821.81;6161039;23;20028;-80
2023/06/02 11:17:30;;;;;;;8.80;2.50;;;;;;;18.42;66.02;101821.22;6160971;23;20066;-79
2023/06/02 11:19:56;;;;;;;6.97;2.63;;;;;;;19.08;62.53;101816.63;6112117;23;20005;-80
2023/06/02 11:22:21;;;;;;;8.25;2.60;;;;;;;19.08;62.04;101822.19;6112147;23;20410;-80
2023/06/02 11:24:49;;;;;;;8.57;2.53;;;;;;;19.50;60.92;101824.44;6161713;23;20013;-80
2023/06/02 11:27:16;;;;;;;11.40;2.17;;;;;;;19.49;59.30;101824.59;6137187;23;20429;-80
2023/06/02 11:29:44;;;;;;;10.43;2.63;;;;;;;18.73;63.76;101823.78;6163184;23;20016;-79
2023/06/02 11:32:10;;;;;;;11.73;2.35;;;;;;;18.75;64.89;101818.94;6138594;23;20733;-79
2023/06/02 11:34:36;;;;;;;13.13;2.97;;;;;;;18.48;64.51;101831.72;6137991;23;20004;-80
2023/06/02 11:37:14;;;;;;;20.02;3.10;;;;;;;18.22;65.96;101833.34;6163107;23;20140;-79
2023/06/02 11:39:53;;;;;;;11.90;2.88;;;;;;;18.10;66.95;101825.22;6137374;23;20035;-80
2023/06/02 11:42:19;;;;;;;19.00;4.03;;;;;;;18.45;66.42;101820.94;6162398;23;20337;-80
2023/06/02 11:44:50;;;;;;;36.17;2.78;;;;;;;18.28;67.23;101824.44;6113084;23;20015;-80
2023/06/02 11:47:20;;;;;;;13.52;3.10;;;;;;;17.90;66.08;101829.00;6162347;23;20083;-79
2023/06/02 11:49:47;;;;;;;9.77;2.80;;;;;;;18.69;65.88;101827.84;6161944;23;20402;-79
2023/06/02 11:52:13;;;;;;;13.45;2.90;;;;;;;18.73;65.19;101821.00;6137647;23;20035;-80
2023/06/02 11:54:53;;;;;;;10.63;2.90;;;;;;;18.35;65.07;101823.72;6187793;23;20476;-80
2023/06/02 11:57:30;;;;;;;7.32;2.63;;;;;;;18.67;65.37;101821.59;6137855;23;20040;-79
2023/06/02 12:00:09;;;;;;;11.20;3.05;;;;;;;18.18;65.79;101803.19;6162678;23;20088;-80
2023/06/02 12:02:57;;;;;;;11.95;3.00;;;;;;;18.22;66.93;101811.16;6188052;23;20009;-80
2023/06/02 12:05:30;;;;;;;15.18;3.20;;;;;;;17.92;66.37;101814.00;6139413;23;20051;-80
2023/06/02 12:08:05;;;;;;;11.25;2.42;;;;;;;18.02;67.42;101808.44;6161890;23;20440;-79
2023/06/02 12:10:32;;;;;;;17.90;3.25;;;;;;;18.53;67.40;101796.09;6139767;23;20439;-80
2023/06/02 12:12:57;;;;;;;9.40;2.50;;;;;;;18.72;66.79;101803.44;6137562;23;20136;-80